sensor_id;sensor_type;location;lat;lon;timestamp;pressure;altitude;pressure_sealevel;temperature;humidity
27014;BME280;14556;52.222;4.510;2022-07-31T00:00:12;101654.25;;;18.61;100.00
27014;BME280;14556;52.222;4.510;2022-07-31T00:02:40;101641.50;;;18.61;100.00
27014;BME280;14556;52.222;4.510;2022-07-31T00:05:07;101643.16;;;18.63;100.00
27014;BME280;14556;52.222;4.510;2022-07-31T00:07:33;101635.41;;;18.66;100.00
27014;BME280;14556;52.222;4.510;2022-07-31T00:10:00;101638.22;;;18.71;100.00
27014;BME280;14556;52.222;4.510;2022-07-31T00:12:26;101634.44;;;18.72;100.00
27014;BME280;14556;52.222;4.510;2022-07-31T00:14:53;101633.41;;;18.73;100.00
27014;BME280;14556;52.222;4.510;2022-07-31T00:17:19;101633.16;;;18.75;100.00
27014;BME280;14556;52.222;4.510;2022-07-31T00:19:46;101626.06;;;18.74;100.00
27014;BME280;14556;52.222;4.510;2022-07-31T00:22:12;101628.56;;;18.76;100.00
27014;BME280;14556;52.222;4.510;2022-07-31T00:24:39;101626.44;;;18.78;100.00
27014;BME280;14556;52.222;4.510;2022-07-31T00:27:05;101621.25;;;18.76;100.00
27014;BME280;14556;52.222;4.510;2022-07-31T00:29:32;101622.09;;;18.77;100.00
27014;BME280;14556;52.222;4.510;2022-07-31T00:31:58;101615.47;;;18.72;100.00
27014;BME280;14556;52.222;4.510;2022-07-31T00:34:25;101615.47;;;18.72;100.00
27014;BME280;14556;52.222;4.510;2022-07-31T00:36:51;101606.28;;;18.61;100.00
27014;BME280;14556;52.222;4.510;2022-07-31T00:39:18;101620.78;;;18.67;100.00
27014;BME280;14556;52.222;4.510;2022-07-31T00:41:45;101621.00;;;18.66;100.00
27014;BME280;14556;52.222;4.510;2022-07-31T00:44:12;101618.53;;;18.64;100.00
27014;BME280;14556;52.222;4.510;2022-07-31T00:46:40;101609.34;;;18.65;100.00
27014;BME280;14556;52.222;4.510;2022-07-31T00:49:08;101605.13;;;18.69;100.00
27014;BME280;14556;52.222;4.510;2022-07-31T00:51:38;101603.69;;;18.67;100.00
27014;BME280;14556;52.222;4.510;2022-07-31T00:54:06;101602.06;;;18.66;100.00
27014;BME280;14556;52.222;4.510;2022-07-31T00:56:34;101599.56;;;18.64;100.00
27014;BME280;14556;52.222;4.510;2022-07-31T00:59:01;101596.03;;;18.64;100.00
27014;BME280;14556;52.222;4.510;2022-07-31T01:01:28;101586.28;;;18.63;100.00
27014;BME280;14556;52.222;4.510;2022-07-31T01:03:56;101594.03;;;18.59;100.00
27014;BME280;14556;52.222;4.510;2022-07-31T01:06:22;101591.94;;;18.61;100.00
27014;BME280;14556;52.222;4.510;2022-07-31T01:08:49;101586.63;;;18.66;100.00
27014;BME280;14556;52.222;4.510;2022-07-31T01:11:23;101588.25;;;18.67;100.00
27014;BME280;14556;52.222;4.510;2022-07-31T01:13:53;101596.16;;;18.69;100.00
27014;BME280;14556;52.222;4.510;2022-07-31T01:16:23;101577.19;;;18.69;100.00
27014;BME280;14556;52.222;4.510;2022-07-31T01:18:52;101599.22;;;18.84;100.00
27014;BME280;14556;52.222;4.510;2022-07-31T01:21:28;101592.41;;;18.82;100.00
27014;BME280;14556;52.222;4.510;2022-07-31T01:24:23;101590.06;;;18.73;100.00
27014;BME280;14556;52.222;4.510;2022-07-31T01:27:03;101583.31;;;18.64;100.00
27014;BME280;14556;52.222;4.510;2022-07-31T01:29:36;101594.03;;;18.71;100.00
27014;BME280;14556;52.222;4.510;2022-07-31T01:32:08;101596.88;;;18.76;100.00
27014;BME280;14556;52.222;4.510;2022-07-31T01:37:27;101589.09;;;18.68;100.00
27014;BME280;14556;52.222;4.510;2022-07-31T01:40:04;101590.28;;;18.72;100.00
27014;BME280;14556;52.222;4.510;2022-07-31T01:42:33;101573.09;;;18.66;100.00
27014;BME280;14556;52.222;4.510;2022-07-31T01:45:02;101593.00;;;18.84;100.00
27014;BME280;14556;52.222;4.510;2022-07-31T01:47:31;101582.50;;;18.88;100.00
27014;BME280;14556;52.222;4.510;2022-07-31T01:50:00;101588.72;;;18.88;100.00
27014;BME280;14556;52.222;4.510;2022-07-31T01:52:28;101582.59;;;18.81;100.00
27014;BME280;14556;52.222;4.510;2022-07-31T01:54:58;101590.63;;;18.76;100.00
27014;BME280;14556;52.222;4.510;2022-07-31T01:57:26;101587.91;;;18.76;100.00
27014;BME280;14556;52.222;4.510;2022-07-31T01:59:58;101580.72;;;18.69;100.00
27014;BME280;14556;52.222;4.510;2022-07-31T02:02:28;101586.97;;;18.70;100.00
27014;BME280;14556;52.222;4.510;2022-07-31T02:04:56;101578.75;;;18.65;100.00
27014;BME280;14556;52.222;4.510;2022-07-31T02:07:24;101574.59;;;18.62;100.00
27014;BME280;14556;52.222;4.510;2022-07-31T02:09:52;101572.38;;;18.59;100.00
27014;BME280;14556;52.222;4.510;2022-07-31T02:12:25;101573.88;;;18.55;100.00
27014;BME280;14556;52.222;4.510;2022-07-31T02:15:03;101562.94;;;18.49;100.00
27014;BME280;14556;52.222;4.510;2022-07-31T02:17:32;101574.72;;;18.55;100.00
27014;BME280;14556;52.222;4.510;2022-07-31T02:20:02;101567.19;;;18.57;100.00
27014;BME280;14556;52.222;4.510;2022-07-31T02:22:28;101570.72;;;18.58;100.00
27014;BME280;14556;52.222;4.510;2022-07-31T02:24:55;101569.66;;;18.59;100.00
27014;BME280;14556;52.222;4.510;2022-07-31T02:27:23;101566.72;;;18.60;100.00
27014;BME280;14556;52.222;4.510;2022-07-31T02:30:10;101558.00;;;18.58;100.00
27014;BME280;14556;52.222;4.510;2022-07-31T02:32:38;101546.56;;;18.56;100.00
27014;BME280;14556;52.222;4.510;2022-07-31T02:35:06;101549.97;;;18.64;100.00
27014;BME280;14556;52.222;4.510;2022-07-31T02:37:35;101551.63;;;18.65;100.00
27014;BME280;14556;52.222;4.510;2022-07-31T02:40:03;101563.03;;;18.67;100.00
27014;BME280;14556;52.222;4.510;2022-07-31T02:42:32;101561.88;;;18.75;100.00
27014;BME280;14556;52.222;4.510;2022-07-31T02:45:00;101552.22;;;18.79;100.00
27014;BME280;14556;52.222;4.510;2022-07-31T02:47:27;101553.59;;;18.93;100.00
27014;BME280;14556;52.222;4.510;2022-07-31T02:49:56;101560.81;;;19.00;100.00
27014;BME280;14556;52.222;4.510;2022-07-31T02:52:23;101553.72;;;18.99;100.00
27014;BME280;14556;52.222;4.510;2022-07-31T02:54:50;101551.25;;;18.97;100.00
27014;BME280;14556;52.222;4.510;2022-07-31T02:57:18;101553.72;;;18.99;100.00
27014;BME280;14556;52.222;4.510;2022-07-31T02:59:44;101546.41;;;18.99;100.00
27014;BME280;14556;52.222;4.510;2022-07-31T03:02:10;101539.72;;;19.02;100.00
27014;BME280;14556;52.222;4.510;2022-07-31T03:04:37;101535.09;;;19.02;100.00
27014;BME280;14556;52.222;4.510;2022-07-31T03:07:03;101529.66;;;19.02;100.00
27014;BME280;14556;52.222;4.510;2022-07-31T03:09:30;101522.97;;;19.05;100.00
27014;BME280;14556;52.222;4.510;2022-07-31T03:11:57;101530.00;;;19.06;100.00
27014;BME280;14556;52.222;4.510;2022-07-31T03:14:32;101505.66;;;18.94;100.00
27014;BME280;14556;52.222;4.510;2022-07-31T03:17:01;101536.41;;;19.12;100.00
27014;BME280;14556;52.222;4.510;2022-07-31T03:19:29;101531.88;;;19.05;100.00
27014;BME280;14556;52.222;4.510;2022-07-31T03:21:58;101531.34;;;19.03;100.00
27014;BME280;14556;52.222;4.510;2022-07-31T03:24:24;101532.28;;;18.97;100.00
27014;BME280;14556;52.222;4.510;2022-07-31T03:26:52;101522.59;;;19.01;100.00
27014;BME280;14556;52.222;4.510;2022-07-31T03:29:18;101512.69;;;19.07;100.00
27014;BME280;14556;52.222;4.510;2022-07-31T03:32:05;101519.75;;;19.20;100.00
27014;BME280;14556;52.222;4.510;2022-07-31T03:34:32;101523.75;;;19.05;100.00
27014;BME280;14556;52.222;4.510;2022-07-31T03:36:58;101525.06;;;19.03;100.00
27014;BME280;14556;52.222;4.510;2022-07-31T03:39:25;101519.75;;;19.08;100.00
27014;BME280;14556;52.222;4.510;2022-07-31T03:41:52;101514.09;;;19.09;100.00
27014;BME280;14556;52.222;4.510;2022-07-31T03:44:20;101513.88;;;19.11;100.00
27014;BME280;14556;52.222;4.510;2022-07-31T03:46:47;101514.81;;;19.17;100.00
27014;BME280;14556;52.222;4.510;2022-07-31T03:49:14;101507.97;;;19.14;100.00
27014;BME280;14556;52.222;4.510;2022-07-31T03:51:40;101506.19;;;19.20;100.00
27014;BME280;14556;52.222;4.510;2022-07-31T03:54:07;101498.78;;;19.15;100.00
27014;BME280;14556;52.222;4.510;2022-07-31T03:56:34;101504.22;;;19.15;100.00
27014;BME280;14556;52.222;4.510;2022-07-31T03:59:02;101506.44;;;19.18;100.00
27014;BME280;14556;52.222;4.510;2022-07-31T04:01:29;101502.44;;;19.21;100.00
27014;BME280;14556;52.222;4.510;2022-07-31T04:04:16;101510.78;;;19.19;100.00
27014;BME280;14556;52.222;4.510;2022-07-31T04:06:43;101509.41;;;19.05;100.00
27014;BME280;14556;52.222;4.510;2022-07-31T04:09:10;101500.13;;;18.89;100.00
27014;BME280;14556;52.222;4.510;2022-07-31T04:11:44;101500.13;;;18.89;100.00
27014;BME280;14556;52.222;4.510;2022-07-31T04:14:11;101503.66;;;18.89;100.00
27014;BME280;14556;52.222;4.510;2022-07-31T04:16:37;101506.00;;;18.97;100.00
27014;BME280;14556;52.222;4.510;2022-07-31T04:19:04;101504.47;;;18.90;100.00
27014;BME280;14556;52.222;4.510;2022-07-31T04:21:30;101502.69;;;18.95;100.00
27014;BME280;14556;52.222;4.510;2022-07-31T04:23:56;101495.84;;;19.05;100.00
27014;BME280;14556;52.222;4.510;2022-07-31T04:26:23;101494.66;;;19.13;100.00
27014;BME280;14556;52.222;4.510;2022-07-31T04:28:51;101499.47;;;19.11;100.00
27014;BME280;14556;52.222;4.510;2022-07-31T04:31:18;101508.81;;;19.03;100.00
27014;BME280;14556;52.222;4.510;2022-07-31T04:33:44;101503.97;;;19.05;100.00
27014;BME280;14556;52.222;4.510;2022-07-31T04:36:15;101498.56;;;19.05;100.00
27014;BME280;14556;52.222;4.510;2022-07-31T04:38:56;101487.59;;;19.12;100.00
27014;BME280;14556;52.222;4.510;2022-07-31T04:41:22;101492.41;;;19.09;100.00
27014;BME280;14556;52.222;4.510;2022-07-31T04:43:49;101490.53;;;19.10;100.00
27014;BME280;14556;52.222;4.510;2022-07-31T04:46:15;101487.94;;;19.15;100.00
27014;BME280;14556;52.222;4.510;2022-07-31T04:48:43;101483.91;;;19.18;100.00
27014;BME280;14556;52.222;4.510;2022-07-31T04:51:17;101484.25;;;19.21;100.00
27014;BME280;14556;52.222;4.510;2022-07-31T04:53:45;101488.84;;;19.09;100.00
27014;BME280;14556;52.222;4.510;2022-07-31T04:56:12;101483.19;;;19.11;100.00
27014;BME280;14556;52.222;4.510;2022-07-31T04:59:01;101474.50;;;19.08;100.00
27014;BME280;14556;52.222;4.510;2022-07-31T05:01:28;101478.84;;;19.21;100.00
27014;BME280;14556;52.222;4.510;2022-07-31T05:03:56;101473.16;;;19.23;100.00
27014;BME280;14556;52.222;4.510;2022-07-31T05:06:31;101480.97;;;19.19;100.00
27014;BME280;14556;52.222;4.510;2022-07-31T05:08:58;101488.63;;;19.11;100.00
27014;BME280;14556;52.222;4.510;2022-07-31T05:11:25;101482.69;;;18.96;100.00
27014;BME280;14556;52.222;4.510;2022-07-31T05:13:53;101482.63;;;19.08;100.00
27014;BME280;14556;52.222;4.510;2022-07-31T05:16:21;101481.56;;;19.09;100.00
27014;BME280;14556;52.222;4.510;2022-07-31T05:18:48;101477.47;;;19.07;100.00
27014;BME280;14556;52.222;4.510;2022-07-31T05:21:15;101479.91;;;19.08;100.00
27014;BME280;14556;52.222;4.510;2022-07-31T05:23:42;101480.31;;;19.12;100.00
27014;BME280;14556;52.222;4.510;2022-07-31T05:26:09;101480.06;;;19.14;100.00
27014;BME280;14556;52.222;4.510;2022-07-31T05:28:37;101475.78;;;19.18;100.00
27014;BME280;14556;52.222;4.510;2022-07-31T05:31:05;101482.22;;;19.29;100.00
27014;BME280;14556;52.222;4.510;2022-07-31T05:33:32;101480.84;;;19.26;100.00
27014;BME280;14556;52.222;4.510;2022-07-31T05:35:59;101483.22;;;19.23;100.00
27014;BME280;14556;52.222;4.510;2022-07-31T05:38:26;101482.13;;;19.24;100.00
27014;BME280;14556;52.222;4.510;2022-07-31T05:40:53;101478.84;;;19.21;100.00
27014;BME280;14556;52.222;4.510;2022-07-31T05:43:19;101473.75;;;19.25;100.00
27014;BME280;14556;52.222;4.510;2022-07-31T05:45:46;101470.78;;;19.27;100.00
27014;BME280;14556;52.222;4.510;2022-07-31T05:48:13;101466.88;;;19.35;100.00
27014;BME280;14556;52.222;4.510;2022-07-31T05:50:44;101472.41;;;19.40;100.00
27014;BME280;14556;52.222;4.510;2022-07-31T05:53:11;101470.19;;;19.37;100.00
27014;BME280;14556;52.222;4.510;2022-07-31T05:55:41;101452.97;;;19.31;100.00
27014;BME280;14556;52.222;4.510;2022-07-31T05:58:08;101459.09;;;19.38;100.00
27014;BME280;14556;52.222;4.510;2022-07-31T06:00:42;101454.72;;;19.37;100.00
27014;BME280;14556;52.222;4.510;2022-07-31T06:03:09;101445.28;;;19.40;100.00
27014;BME280;14556;52.222;4.510;2022-07-31T06:05:38;101454.34;;;19.45;100.00
27014;BME280;14556;52.222;4.510;2022-07-31T06:08:06;101457.13;;;19.51;100.00
27014;BME280;14556;52.222;4.510;2022-07-31T06:10:34;101462.78;;;19.49;100.00
27014;BME280;14556;52.222;4.510;2022-07-31T06:13:03;101468.47;;;19.48;100.00
27014;BME280;14556;52.222;4.510;2022-07-31T06:15:30;101463.28;;;19.46;100.00
27014;BME280;14556;52.222;4.510;2022-07-31T06:18:02;101472.00;;;19.48;100.00
27014;BME280;14556;52.222;4.510;2022-07-31T06:20:29;101464.59;;;19.43;100.00
27014;BME280;14556;52.222;4.510;2022-07-31T06:22:56;101470.63;;;19.45;100.00
27014;BME280;14556;52.222;4.510;2022-07-31T06:25:23;101467.66;;;19.47;100.00
27014;BME280;14556;52.222;4.510;2022-07-31T06:27:55;101465.75;;;19.48;100.00
27014;BME280;14556;52.222;4.510;2022-07-31T06:30:26;101469.28;;;19.48;100.00
27014;BME280;14556;52.222;4.510;2022-07-31T06:32:53;101467.91;;;19.45;100.00
27014;BME280;14556;52.222;4.510;2022-07-31T06:35:19;101476.50;;;19.42;100.00
27014;BME280;14556;52.222;4.510;2022-07-31T06:37:46;101470.63;;;19.33;100.00
27014;BME280;14556;52.222;4.510;2022-07-31T06:40:12;101467.56;;;19.42;100.00
27014;BME280;14556;52.222;4.510;2022-07-31T06:42:40;101468.13;;;19.44;100.00
27014;BME280;14556;52.222;4.510;2022-07-31T06:45:07;101473.16;;;19.52;100.00
27014;BME280;14556;52.222;4.510;2022-07-31T06:47:34;101472.34;;;19.52;100.00
27014;BME280;14556;52.222;4.510;2022-07-31T06:50:01;101466.09;;;19.51;100.00
27014;BME280;14556;52.222;4.510;2022-07-31T06:52:27;101459.09;;;19.55;100.00
27014;BME280;14556;52.222;4.510;2022-07-31T06:54:54;101460.50;;;19.58;100.00
27014;BME280;14556;52.222;4.510;2022-07-31T06:57:20;101479.13;;;19.66;100.00
27014;BME280;14556;52.222;4.510;2022-07-31T06:59:47;101467.91;;;19.63;100.00
27014;BME280;14556;52.222;4.510;2022-07-31T07:02:13;101472.84;;;19.66;100.00
27014;BME280;14556;52.222;4.510;2022-07-31T07:04:40;101472.19;;;19.59;100.00
27014;BME280;14556;52.222;4.510;2022-07-31T07:07:26;101466.75;;;19.59;100.00
27014;BME280;14556;52.222;4.510;2022-07-31T07:09:57;101473.69;;;19.66;100.00
27014;BME280;14556;52.222;4.510;2022-07-31T07:12:24;101465.38;;;19.56;100.00
27014;BME280;14556;52.222;4.510;2022-07-31T07:14:52;101461.91;;;19.61;100.00
27014;BME280;14556;52.222;4.510;2022-07-31T07:17:18;101462.16;;;19.59;100.00
27014;BME280;14556;52.222;4.510;2022-07-31T07:19:45;101452.69;;;19.62;100.00
27014;BME280;14556;52.222;4.510;2022-07-31T07:22:19;101445.28;;;19.57;100.00
27014;BME280;14556;52.222;4.510;2022-07-31T07:24:58;101469.66;;;19.69;100.00
27014;BME280;14556;52.222;4.510;2022-07-31T07:27:25;101459.78;;;19.63;100.00
27014;BME280;14556;52.222;4.510;2022-07-31T07:29:51;101466.59;;;19.65;100.00
27014;BME280;14556;52.222;4.510;2022-07-31T07:32:18;101456.56;;;19.66;100.00
27014;BME280;14556;52.222;4.510;2022-07-31T07:34:44;101449.00;;;19.68;100.00
27014;BME280;14556;52.222;4.510;2022-07-31T07:37:11;101456.66;;;19.71;100.00
27014;BME280;14556;52.222;4.510;2022-07-31T07:39:37;101457.97;;;19.68;100.00
27014;BME280;14556;52.222;4.510;2022-07-31T07:42:04;101451.22;;;19.71;100.00
27014;BME280;14556;52.222;4.510;2022-07-31T07:44:31;101450.91;;;19.67;100.00
27014;BME280;14556;52.222;4.510;2022-07-31T07:46:57;101448.19;;;19.67;100.00
27014;BME280;14556;52.222;4.510;2022-07-31T07:49:24;101447.09;;;19.68;100.00
27014;BME280;14556;52.222;4.510;2022-07-31T07:51:50;101442.00;;;19.72;100.00
27014;BME280;14556;52.222;4.510;2022-07-31T07:54:35;101438.75;;;19.70;100.00
27014;BME280;14556;52.222;4.510;2022-07-31T07:57:02;101444.81;;;19.77;100.00
27014;BME280;14556;52.222;4.510;2022-07-31T07:59:28;101450.31;;;19.83;100.00
27014;BME280;14556;52.222;4.510;2022-07-31T08:01:55;101448.84;;;19.75;100.00
27014;BME280;14556;52.222;4.510;2022-07-31T08:04:21;101447.28;;;19.79;100.00
27014;BME280;14556;52.222;4.510;2022-07-31T08:06:48;101444.88;;;19.83;100.00
27014;BME280;14556;52.222;4.510;2022-07-31T08:09:14;101444.16;;;19.87;100.00
27014;BME280;14556;52.222;4.510;2022-07-31T08:11:41;101437.66;;;19.88;100.00
27014;BME280;14556;52.222;4.510;2022-07-31T08:14:08;101444.41;;;19.86;100.00
27014;BME280;14556;52.222;4.510;2022-07-31T08:16:34;101440.28;;;19.83;100.00
27014;BME280;14556;52.222;4.510;2022-07-31T08:19:01;101436.50;;;19.84;100.00
27014;BME280;14556;52.222;4.510;2022-07-31T08:21:27;101442.50;;;19.86;100.00
27014;BME280;14556;52.222;4.510;2022-07-31T08:23:54;101438.75;;;19.87;100.00
27014;BME280;14556;52.222;4.510;2022-07-31T08:26:21;101438.16;;;19.85;100.00
27014;BME280;14556;52.222;4.510;2022-07-31T08:28:47;101439.28;;;19.89;100.00
27014;BME280;14556;52.222;4.510;2022-07-31T08:31:17;101426.22;;;19.86;100.00
27014;BME280;14556;52.222;4.510;2022-07-31T08:33:44;101432.22;;;19.88;100.00
27014;BME280;14556;52.222;4.510;2022-07-31T08:36:10;101428.75;;;19.93;100.00
27014;BME280;14556;52.222;4.510;2022-07-31T08:38:37;101434.78;;;19.95;100.00
27014;BME280;14556;52.222;4.510;2022-07-31T08:41:04;101442.84;;;19.90;100.00
27014;BME280;14556;52.222;4.510;2022-07-31T08:43:31;101435.59;;;19.78;100.00
27014;BME280;14556;52.222;4.510;2022-07-31T08:46:18;101435.84;;;19.77;100.00
27014;BME280;14556;52.222;4.510;2022-07-31T08:48:46;101445.13;;;19.81;100.00
27014;BME280;14556;52.222;4.510;2022-07-31T08:51:14;101438.31;;;19.78;100.00
27014;BME280;14556;52.222;4.510;2022-07-31T08:53:42;101430.97;;;19.79;100.00
27014;BME280;14556;52.222;4.510;2022-07-31T08:56:10;101436.31;;;19.74;100.00
27014;BME280;14556;52.222;4.510;2022-07-31T08:58:37;101428.69;;;19.71;100.00
27014;BME280;14556;52.222;4.510;2022-07-31T09:01:07;101444.00;;;19.77;100.00
27014;BME280;14556;52.222;4.510;2022-07-31T09:03:34;101439.78;;;19.69;100.00
27014;BME280;14556;52.222;4.510;2022-07-31T09:06:02;101446.13;;;19.75;100.00
27014;BME280;14556;52.222;4.510;2022-07-31T09:08:32;101441.28;;;19.77;100.00
27014;BME280;14556;52.222;4.510;2022-07-31T09:11:05;101438.06;;;19.80;100.00
27014;BME280;14556;52.222;4.510;2022-07-31T09:13:32;101443.84;;;19.84;100.00
27014;BME280;14556;52.222;4.510;2022-07-31T09:16:00;101439.47;;;19.83;100.00
27014;BME280;14556;52.222;4.510;2022-07-31T09:18:27;101437.31;;;19.85;100.00
27014;BME280;14556;52.222;4.510;2022-07-31T09:20:58;101428.84;;;19.81;100.00
27014;BME280;14556;52.222;4.510;2022-07-31T09:23:27;101428.59;;;19.83;100.00
27014;BME280;14556;52.222;4.510;2022-07-31T09:25:56;101434.63;;;19.85;100.00
27014;BME280;14556;52.222;4.510;2022-07-31T09:28:38;101431.31;;;19.83;100.00
27014;BME280;14556;52.222;4.510;2022-07-31T09:31:06;101424.50;;;19.80;100.00
27014;BME280;14556;52.222;4.510;2022-07-31T09:33:34;101434.88;;;19.83;100.00
27014;BME280;14556;52.222;4.510;2022-07-31T09:36:09;101429.09;;;19.79;100.00
27014;BME280;14556;52.222;4.510;2022-07-31T09:38:40;101429.50;;;19.88;100.00
27014;BME280;14556;52.222;4.510;2022-07-31T09:41:15;101414.06;;;19.72;100.00
27014;BME280;14556;52.222;4.510;2022-07-31T09:44:03;101432.97;;;19.84;100.00
27014;BME280;14556;52.222;4.510;2022-07-31T09:46:42;101434.38;;;19.86;100.00
27014;BME280;14556;52.222;4.510;2022-07-31T09:49:10;101435.44;;;19.85;100.00
27014;BME280;14556;52.222;4.510;2022-07-31T09:51:45;101429.69;;;19.81;100.00
27014;BME280;14556;52.222;4.510;2022-07-31T09:54:23;101426.38;;;19.79;100.00
27014;BME280;14556;52.222;4.510;2022-07-31T09:56:50;101427.81;;;19.82;100.00
27014;BME280;14556;52.222;4.510;2022-07-31T09:59:17;101422.38;;;19.82;100.00
27014;BME280;14556;52.222;4.510;2022-07-31T10:01:45;101426.97;;;19.81;100.00
27014;BME280;14556;52.222;4.510;2022-07-31T10:04:16;101433.56;;;19.86;100.00
27014;BME280;14556;52.222;4.510;2022-07-31T10:06:48;101424.84;;;19.84;100.00
27014;BME280;14556;52.222;4.510;2022-07-31T10:09:17;101407.06;;;19.76;100.00
27014;BME280;14556;52.222;4.510;2022-07-31T10:11:46;101436.75;;;19.83;100.00
27014;BME280;14556;52.222;4.510;2022-07-31T10:14:27;101430.50;;;19.82;100.00
27014;BME280;14556;52.222;4.510;2022-07-31T10:16:55;101432.41;;;19.81;100.00
27014;BME280;14556;52.222;4.510;2022-07-31T10:19:26;101436.75;;;19.83;100.00
27014;BME280;14556;52.222;4.510;2022-07-31T10:21:56;101437.25;;;19.79;100.00
27014;BME280;14556;52.222;4.510;2022-07-31T10:24:25;101425.00;;;19.77;100.00
27014;BME280;14556;52.222;4.510;2022-07-31T10:26:56;101431.06;;;19.84;100.00
27014;BME280;14556;52.222;4.510;2022-07-31T10:29:26;101423.19;;;19.83;100.00
27014;BME280;14556;52.222;4.510;2022-07-31T10:32:17;101425.63;;;19.84;100.00
27014;BME280;14556;52.222;4.510;2022-07-31T10:34:43;101417.81;;;19.88;100.00
27014;BME280;14556;52.222;4.510;2022-07-31T10:37:15;101418.72;;;19.93;100.00
27014;BME280;14556;52.222;4.510;2022-07-31T10:39:53;101424.81;;;20.01;100.00
27014;BME280;14556;52.222;4.510;2022-07-31T10:45:10;101421.19;;;20.12;100.00
27014;BME280;14556;52.222;4.510;2022-07-31T10:47:38;101414.53;;;20.20;100.00
27014;BME280;14556;52.222;4.510;2022-07-31T10:50:26;101399.66;;;20.05;100.00
27014;BME280;14556;52.222;4.510;2022-07-31T10:52:52;101426.72;;;20.17;100.00
27014;BME280;14556;52.222;4.510;2022-07-31T10:55:25;101417.69;;;20.12;100.00
27014;BME280;14556;52.222;4.510;2022-07-31T10:57:52;101424.75;;;20.13;100.00
27014;BME280;14556;52.222;4.510;2022-07-31T11:00:25;101414.97;;;20.12;100.00
27014;BME280;14556;52.222;4.510;2022-07-31T11:02:55;101414.66;;;20.08;100.00
27014;BME280;14556;52.222;4.510;2022-07-31T11:05:22;101411.34;;;20.06;100.00
27014;BME280;14556;52.222;4.510;2022-07-31T11:08:00;101411.94;;;20.08;100.00
27014;BME280;14556;52.222;4.510;2022-07-31T11:10:27;101414.13;;;20.11;100.00
27014;BME280;14556;52.222;4.510;2022-07-31T11:13:04;101414.47;;;20.15;100.00
27014;BME280;14556;52.222;4.510;2022-07-31T11:15:31;101419.38;;;20.18;100.00
27014;BME280;14556;52.222;4.510;2022-07-31T11:17:58;101422.94;;;20.19;100.00
27014;BME280;14556;52.222;4.510;2022-07-31T11:21:02;101422.94;;;20.19;100.00
27014;BME280;14556;52.222;4.510;2022-07-31T11:23:50;101415.84;;;20.17;100.00
27014;BME280;14556;52.222;4.510;2022-07-31T11:26:29;101412.91;;;20.19;100.00
27014;BME280;14556;52.222;4.510;2022-07-31T11:29:10;101417.50;;;20.19;100.00
27014;BME280;14556;52.222;4.510;2022-07-31T11:32:15;101412.31;;;20.17;100.00
27014;BME280;14556;52.222;4.510;2022-07-31T11:34:52;101406.63;;;20.19;100.00
27014;BME280;14556;52.222;4.510;2022-07-31T11:37:26;101396.44;;;20.09;100.00
27014;BME280;14556;52.222;4.510;2022-07-31T11:40:13;101409.88;;;20.15;100.00
27014;BME280;14556;52.222;4.510;2022-07-31T11:42:43;101411.16;;;20.13;100.00
27014;BME280;14556;52.222;4.510;2022-07-31T11:45:12;101410.59;;;20.11;100.00
27014;BME280;14556;52.222;4.510;2022-07-31T11:47:45;101419.31;;;20.13;100.00
27014;BME280;14556;52.222;4.510;2022-07-31T11:50:41;101426.31;;;20.09;100.00
27014;BME280;14556;52.222;4.510;2022-07-31T11:53:07;101427.63;;;20.06;100.00
27014;BME280;14556;52.222;4.510;2022-07-31T11:55:46;101422.69;;;20.03;100.00
27014;BME280;14556;52.222;4.510;2022-07-31T11:58:14;101422.34;;;19.99;100.00
27014;BME280;14556;52.222;4.510;2022-07-31T12:01:23;101426.69;;;20.00;100.00
27014;BME280;14556;52.222;4.510;2022-07-31T12:03:42;101429.41;;;20.00;100.00
27014;BME280;14556;52.222;4.510;2022-07-31T12:06:09;101424.31;;;20.04;100.00
27014;BME280;14556;52.222;4.510;2022-07-31T12:08:38;101417.75;;;20.00;100.00
27014;BME280;14556;52.222;4.510;2022-07-31T12:11:06;101419.75;;;20.04;100.00
27014;BME280;14556;52.222;4.510;2022-07-31T12:13:34;101426.81;;;20.05;100.00
27014;BME280;14556;52.222;4.510;2022-07-31T12:16:08;101419.25;;;20.08;100.00
27014;BME280;14556;52.222;4.510;2022-07-31T12:18:47;101422.03;;;20.13;100.00
27014;BME280;14556;52.222;4.510;2022-07-31T12:21:15;101415.22;;;20.10;100.00
27014;BME280;14556;52.222;4.510;2022-07-31T12:23:44;101418.16;;;20.09;100.00
27014;BME280;14556;52.222;4.510;2022-07-31T12:26:24;101415.69;;;20.07;100.00
27014;BME280;14556;52.222;4.510;2022-07-31T12:29:06;101419.50;;;20.06;100.00
27014;BME280;14556;52.222;4.510;2022-07-31T12:34:36;101415.69;;;20.07;100.00
27014;BME280;14556;52.222;4.510;2022-07-31T12:37:07;101417.75;;;20.17;100.00
27014;BME280;14556;52.222;4.510;2022-07-31T12:39:37;101417.81;;;20.22;100.00
27014;BME280;14556;52.222;4.510;2022-07-31T12:44:58;101415.13;;;20.22;100.00
27014;BME280;14556;52.222;4.510;2022-07-31T12:47:43;101413.44;;;20.21;100.00
27014;BME280;14556;52.222;4.510;2022-07-31T12:50:16;101411.81;;;20.20;100.00
27014;BME280;14556;52.222;4.510;2022-07-31T12:52:44;101407.69;;;20.17;100.00
27014;BME280;14556;52.222;4.510;2022-07-31T12:55:10;101403.66;;;20.20;100.00
27014;BME280;14556;52.222;4.510;2022-07-31T12:57:37;101411.31;;;20.23;100.00
27014;BME280;14556;52.222;4.510;2022-07-31T13:00:16;101395.28;;;20.22;100.00
27014;BME280;14556;52.222;4.510;2022-07-31T13:02:43;101413.19;;;20.23;100.00
27014;BME280;14556;52.222;4.510;2022-07-31T13:05:10;101410.75;;;20.21;100.00